Time;durP1;ratioP1;P1;durP2;ratioP2;P2;SDS_P1;SDS_P2;PMS_P1;PMS_P2;Temp;Humidity;BMP_temperature;BMP_pressure;BME280_temperature;BME280_humidity;BME280_pressure;Samples;Min_cycle;Max_cycle;Signal;HPM_P1;HPM_P2
2023/12/23 00:01:06;;;;;;;1.00;0.90;;;3.60;97.30;;;;;;5019419;28;20263;-84
2023/12/23 00:03:31;;;;;;;0.90;0.80;;;3.80;97.30;;;;;;4998332;28;20201;-86
2023/12/23 00:05:57;;;;;;;1.03;0.93;;;3.80;97.30;;;;;;5014753;28;20181;-88
2023/12/23 00:08:22;;;;;;;0.90;0.80;;;3.90;97.30;;;;;;5014729;28;20676;-87
2023/12/23 00:10:48;;;;;;;0.90;0.80;;;4.00;97.30;;;;;;5016269;28;20181;-88
2023/12/23 00:13:13;;;;;;;0.90;0.80;;;4.00;97.30;;;;;;5014827;28;20177;-87
2023/12/23 00:15:39;;;;;;;2.03;1.90;;;4.00;97.30;;;;;;4997926;28;20231;-88
2023/12/23 00:18:04;;;;;;;1.00;0.90;;;4.00;97.30;;;;;;5015610;28;20296;-87
2023/12/23 00:20:30;;;;;;;1.00;0.90;;;4.00;97.30;;;;;;4997376;28;20555;-88
2023/12/23 00:22:56;;;;;;;0.90;0.80;;;4.00;97.30;;;;;;5014465;28;20169;-89
2023/12/23 00:25:21;;;;;;;1.00;0.90;;;4.00;97.30;;;;;;4997741;28;20734;-88
2023/12/23 00:27:47;;;;;;;4.68;1.38;;;4.00;97.30;;;;;;5014621;28;20457;-86
2023/12/23 00:30:15;;;;;;;1.10;1.00;;;4.00;97.30;;;;;;4999216;28;20173;-86
2023/12/23 00:32:46;;;;;;;1.30;1.20;;;4.00;97.30;;;;;;5015046;28;20496;-89
2023/12/23 00:35:12;;;;;;;1.00;0.90;;;4.00;97.30;;;;;;5016690;28;20462;-89
2023/12/23 00:37:37;;;;;;;11.87;3.10;;;4.00;97.30;;;;;;5007104;28;20824;-88
2023/12/23 00:40:03;;;;;;;0.90;0.80;;;4.00;97.30;;;;;;4998074;28;20602;-89
2023/12/23 00:42:29;;;;;;;1.00;0.90;;;4.00;97.30;;;;;;4997806;28;20256;-88
2023/12/23 00:44:54;;;;;;;1.40;1.30;;;4.00;97.30;;;;;;5014020;28;20440;-88
2023/12/23 00:47:21;;;;;;;0.90;0.80;;;4.00;97.30;;;;;;4998010;28;20181;-87
2023/12/23 00:49:47;;;;;;;0.90;0.80;;;4.00;97.30;;;;;;5015605;28;20643;-88
2023/12/23 00:52:12;;;;;;;0.90;0.80;;;3.40;97.30;;;;;;5015429;28;20511;-88
2023/12/23 00:54:38;;;;;;;0.90;0.80;;;3.10;97.30;;;;;;4998056;28;20217;-88
2023/12/23 00:57:03;;;;;;;1.00;0.90;;;2.80;97.30;;;;;;5014335;28;20631;-86
2023/12/23 00:59:29;;;;;;;1.30;1.20;;;2.60;97.30;;;;;;5014213;28;20209;-84
2023/12/23 01:01:54;;;;;;;1.00;0.90;;;2.30;97.30;;;;;;4997861;28;20169;-87
2023/12/23 01:04:20;;;;;;;1.00;0.90;;;2.20;97.30;;;;;;4997391;28;20647;-88
2023/12/23 01:06:45;;;;;;;0.97;0.87;;;2.10;97.30;;;;;;4998286;28;20185;-86
2023/12/23 01:09:12;;;;;;;0.93;0.83;;;2.10;97.30;;;;;;5016273;28;20260;-85
2023/12/23 01:11:37;;;;;;;1.00;0.90;;;2.10;97.30;;;;;;4999083;28;20181;-86
2023/12/23 01:14:02;;;;;;;1.00;0.90;;;2.20;97.30;;;;;;5015635;28;20512;-87
2023/12/23 01:16:28;;;;;;;1.00;0.90;;;2.20;97.30;;;;;;4998880;28;20832;-86
2023/12/23 01:18:53;;;;;;;1.10;1.00;;;2.30;97.30;;;;;;5016094;28;20173;-87
2023/12/23 01:21:20;;;;;;;1.10;1.00;;;2.40;97.30;;;;;;4998125;28;20538;-86
2023/12/23 01:23:49;;;;;;;0.90;0.80;;;2.40;97.30;;;;;;5014612;28;20231;-86
2023/12/23 01:26:14;;;;;;;1.00;0.90;;;2.40;97.30;;;;;;4998238;28;20424;-87
2023/12/23 01:28:40;;;;;;;9.73;1.50;;;2.30;97.30;;;;;;4997737;28;20486;-86
2023/12/23 01:31:05;;;;;;;0.90;0.80;;;2.30;97.30;;;;;;4996007;28;20607;-86
2023/12/23 01:33:31;;;;;;;1.03;0.93;;;2.40;97.30;;;;;;4997465;28;20197;-86
2023/12/23 01:35:56;;;;;;;1.57;1.30;;;2.60;97.30;;;;;;5000449;28;20223;-88
2023/12/23 01:38:22;;;;;;;1.00;0.90;;;2.60;97.30;;;;;;5001623;28;20187;-84
2023/12/23 01:40:47;;;;;;;1.67;1.20;;;2.70;97.30;;;;;;4999267;28;20209;-88
2023/12/23 01:43:13;;;;;;;1.13;1.03;;;2.90;97.30;;;;;;4998369;28;20173;-85
2023/12/23 01:45:39;;;;;;;1.00;0.90;;;3.00;97.30;;;;;;4999897;28;20185;-85
2023/12/23 01:48:06;;;;;;;0.90;0.80;;;3.00;97.30;;;;;;5014110;28;20213;-87
2023/12/23 01:50:34;;;;;;;1.40;1.30;;;3.10;97.30;;;;;;4999501;28;20464;-85
2023/12/23 01:53:08;;;;;;;0.90;0.80;;;3.10;97.30;;;;;;4999789;28;20424;-85
2023/12/23 01:55:34;;;;;;;5.43;1.63;;;3.10;97.30;;;;;;4995934;28;20471;-85
2023/12/23 01:57:59;;;;;;;1.00;0.90;;;3.10;97.30;;;;;;5017712;28;20477;-85
2023/12/23 02:00:25;;;;;;;1.30;1.20;;;3.00;97.30;;;;;;5016345;28;20945;-89
2023/12/23 02:02:51;;;;;;;0.90;0.80;;;3.00;97.30;;;;;;5000685;28;20211;-89
2023/12/23 02:05:17;;;;;;;1.00;0.90;;;2.90;97.30;;;;;;5014199;28;20232;-88
2023/12/23 02:07:45;;;;;;;19.70;1.33;;;2.90;97.30;;;;;;4997821;28;20268;-89
2023/12/23 02:10:11;;;;;;;4.60;1.47;;;3.00;97.30;;;;;;5013743;28;20258;-89
2023/12/23 02:13:08;;;;;;;0.90;0.80;;;2.90;97.30;;;;;;5014186;28;20428;-88
2023/12/23 02:15:35;;;;;;;1.00;0.90;;;2.80;97.30;;;;;;4997598;28;20932;-89
2023/12/23 02:18:00;;;;;;;1.00;0.90;;;2.70;97.30;;;;;;5015368;28;20419;-89
2023/12/23 02:20:26;;;;;;;7.40;2.20;;;2.60;97.30;;;;;;4997699;28;21018;-88
2023/12/23 02:22:52;;;;;;;2.40;1.23;;;2.60;97.30;;;;;;4997564;28;20655;-89
2023/12/23 02:25:18;;;;;;;1.03;0.93;;;2.50;97.30;;;;;;4997496;28;20454;-89
2023/12/23 02:27:50;;;;;;;1.00;0.90;;;2.50;97.30;;;;;;4996878;28;20221;-89
2023/12/23 02:30:15;;;;;;;0.90;0.80;;;2.50;97.30;;;;;;5013807;28;20271;-89
2023/12/23 02:32:42;;;;;;;1.17;1.07;;;2.50;97.30;;;;;;5014056;28;20444;-89
2023/12/23 02:35:08;;;;;;;1.00;0.90;;;2.40;97.30;;;;;;5015180;28;20462;-89
2023/12/23 02:37:34;;;;;;;0.90;0.80;;;2.40;97.30;;;;;;5012883;28;20424;-88
2023/12/23 02:39:59;;;;;;;0.90;0.80;;;2.40;97.30;;;;;;5013746;28;20185;-89
2023/12/23 02:42:25;;;;;;;1.00;0.90;;;2.40;97.30;;;;;;5014151;28;20183;-89
2023/12/23 02:44:51;;;;;;;1.00;0.90;;;2.50;97.30;;;;;;4996187;28;20255;-89
2023/12/23 02:47:16;;;;;;;1.00;0.90;;;2.50;97.30;;;;;;4997831;28;20503;-86
2023/12/23 02:49:42;;;;;;;1.00;0.90;;;2.50;97.30;;;;;;5015801;28;20189;-86
2023/12/23 02:52:07;;;;;;;1.30;1.20;;;2.50;97.30;;;;;;5015131;28;20285;-86
2023/12/23 02:54:33;;;;;;;1.10;1.00;;;2.60;97.30;;;;;;4997589;28;20216;-86
2023/12/23 02:56:58;;;;;;;1.30;1.20;;;2.60;97.30;;;;;;4998046;28;20555;-86
2023/12/23 02:59:24;;;;;;;1.10;1.00;;;2.70;97.30;;;;;;5014134;28;20181;-86
2023/12/23 03:01:49;;;;;;;1.00;0.90;;;2.70;97.30;;;;;;4997256;28;20165;-86
2023/12/23 03:04:18;;;;;;;1.73;1.63;;;2.70;97.30;;;;;;5012941;28;20695;-90
2023/12/23 03:06:43;;;;;;;0.90;0.80;;;2.80;97.30;;;;;;5004307;28;20184;-89
2023/12/23 03:09:09;;;;;;;1.10;1.00;;;2.90;97.30;;;;;;5019054;28;20778;-89
2023/12/23 03:11:36;;;;;;;1.10;1.00;;;2.90;97.30;;;;;;5015055;28;20686;-87
2023/12/23 03:14:01;;;;;;;12.93;1.53;;;2.80;97.30;;;;;;4997581;28;20219;-86
2023/12/23 03:16:33;;;;;;;1.30;1.20;;;2.80;97.30;;;;;;5014203;28;20547;-87
2023/12/23 03:19:02;;;;;;;0.90;0.80;;;2.80;97.30;;;;;;5014936;28;20177;-87
2023/12/23 03:21:29;;;;;;;0.90;0.80;;;2.70;97.30;;;;;;4997972;28;20427;-86
2023/12/23 03:23:54;;;;;;;0.90;0.80;;;2.70;97.30;;;;;;5013463;28;20440;-86
2023/12/23 03:26:20;;;;;;;1.00;0.90;;;2.70;97.30;;;;;;5013369;28;20408;-89
2023/12/23 03:28:45;;;;;;;0.90;0.80;;;2.70;97.30;;;;;;4996382;28;20173;-88
2023/12/23 03:31:11;;;;;;;1.00;0.90;;;2.70;97.30;;;;;;4996617;28;20553;-88
2023/12/23 03:33:36;;;;;;;1.00;0.90;;;2.70;97.30;;;;;;5012598;28;20655;-88
2023/12/23 03:36:02;;;;;;;1.20;1.10;;;2.70;97.30;;;;;;5012756;28;20201;-88
2023/12/23 03:38:28;;;;;;;0.90;0.80;;;2.70;97.30;;;;;;4995731;28;20181;-88
2023/12/23 03:40:53;;;;;;;1.00;0.90;;;2.70;97.30;;;;;;5012074;28;20424;-88
2023/12/23 03:43:19;;;;;;;1.10;1.00;;;2.70;97.30;;;;;;4995883;28;20268;-88
2023/12/23 03:45:44;;;;;;;1.07;0.97;;;2.70;97.30;;;;;;4995476;28;20188;-88
2023/12/23 03:48:10;;;;;;;1.27;1.17;;;2.70;97.30;;;;;;5011984;28;20187;-87
2023/12/23 03:50:35;;;;;;;2.20;1.37;;;2.70;97.30;;;;;;5012308;28;20681;-88
2023/12/23 03:53:01;;;;;;;1.00;0.90;;;2.70;97.30;;;;;;4995663;28;20197;-88
2023/12/23 03:55:32;;;;;;;1.10;1.00;;;2.70;97.30;;;;;;5014359;28;20299;-88
2023/12/23 03:58:00;;;;;;;0.97;0.87;;;2.70;97.30;;;;;;5015638;28;20203;-87
2023/12/23 04:00:26;;;;;;;1.00;0.90;;;2.70;97.30;;;;;;5015302;28;20450;-88
2023/12/23 04:02:52;;;;;;;0.97;0.87;;;2.70;97.30;;;;;;4998634;28;20894;-88
2023/12/23 04:05:18;;;;;;;1.07;0.97;;;2.60;97.30;;;;;;4998938;28;20478;-88
2023/12/23 04:07:43;;;;;;;1.10;1.00;;;2.60;97.30;;;;;;5015144;28;20430;-87
2023/12/23 04:10:09;;;;;;;1.10;1.00;;;2.60;97.30;;;;;;4999579;28;20216;-88
2023/12/23 04:12:37;;;;;;;1.00;0.90;;;2.60;97.30;;;;;;5015300;28;20205;-87
2023/12/23 04:15:05;;;;;;;0.90;0.80;;;2.60;97.30;;;;;;5015227;28;21418;-88
2023/12/23 04:17:30;;;;;;;1.03;0.93;;;2.60;97.30;;;;;;4999322;28;20434;-87
2023/12/23 04:19:56;;;;;;;1.10;1.00;;;2.60;97.30;;;;;;4999372;28;20537;-88
2023/12/23 04:22:21;;;;;;;1.07;0.97;;;2.60;97.30;;;;;;5015693;28;20326;-87
2023/12/23 04:24:47;;;;;;;1.10;1.00;;;2.60;97.30;;;;;;4998889;28;20200;-88
2023/12/23 04:27:12;;;;;;;2.87;2.00;;;2.70;97.30;;;;;;5001374;28;20182;-88
2023/12/23 04:29:38;;;;;;;1.00;0.90;;;2.70;97.30;;;;;;4997866;28;20613;-87
2023/12/23 04:32:04;;;;;;;1.00;0.90;;;2.60;97.30;;;;;;4997972;28;20181;-88
2023/12/23 04:34:29;;;;;;;1.17;1.10;;;2.70;97.30;;;;;;5014248;28;20209;-87
2023/12/23 04:36:55;;;;;;;1.13;1.03;;;2.70;97.30;;;;;;4998478;28;20420;-88
2023/12/23 04:39:20;;;;;;;1.00;0.90;;;2.70;97.30;;;;;;5014853;28;20227;-87
2023/12/23 04:41:49;;;;;;;1.00;0.90;;;2.70;97.30;;;;;;5014895;28;20178;-87
2023/12/23 04:44:14;;;;;;;1.00;0.90;;;2.70;97.30;;;;;;5014622;28;20233;-87
2023/12/23 04:46:41;;;;;;;1.10;1.00;;;2.70;97.30;;;;;;5016668;28;20427;-87
2023/12/23 04:49:07;;;;;;;3.33;1.73;;;2.70;97.30;;;;;;4998589;28;20264;-87
2023/12/23 04:51:33;;;;;;;0.93;0.83;;;2.80;97.30;;;;;;4998533;28;20440;-87
2023/12/23 04:53:58;;;;;;;1.03;0.93;;;2.80;97.30;;;;;;5016349;28;20459;-87
2023/12/23 04:56:24;;;;;;;1.20;1.20;;;2.80;97.30;;;;;;5014673;28;20745;-86
2023/12/23 04:58:49;;;;;;;0.90;0.80;;;2.80;97.30;;;;;;4998743;28;20267;-87
2023/12/23 05:01:15;;;;;;;1.20;1.10;;;2.80;97.30;;;;;;5015481;28;20188;-88
2023/12/23 05:03:41;;;;;;;1.27;1.17;;;2.80;97.30;;;;;;5016032;28;20228;-86
2023/12/23 05:06:07;;;;;;;1.00;0.90;;;2.80;97.30;;;;;;5015650;28;20181;-87
2023/12/23 05:08:32;;;;;;;0.90;0.80;;;2.90;97.30;;;;;;5015568;28;20976;-87
2023/12/23 05:10:59;;;;;;;1.23;1.13;;;2.80;97.30;;;;;;5013987;28;20592;-87
2023/12/23 05:13:24;;;;;;;1.00;0.90;;;2.80;97.30;;;;;;5015329;28;20618;-88
2023/12/23 05:15:50;;;;;;;1.07;0.97;;;2.80;97.30;;;;;;4997535;28;20544;-87
2023/12/23 05:18:16;;;;;;;1.20;1.10;;;2.80;97.30;;;;;;5014040;28;20252;-87
2023/12/23 05:20:41;;;;;;;6.30;2.00;;;2.80;97.30;;;;;;5014166;28;20652;-87
2023/12/23 05:23:07;;;;;;;1.73;1.27;;;2.80;97.30;;;;;;4997118;28;20643;-86
2023/12/23 05:25:33;;;;;;;1.30;1.20;;;2.80;97.30;;;;;;5014386;28;20185;-88
2023/12/23 05:27:58;;;;;;;1.00;0.90;;;2.80;97.30;;;;;;5013560;28;20184;-87
2023/12/23 05:30:24;;;;;;;0.93;0.83;;;2.80;97.30;;;;;;5015250;28;20675;-88
2023/12/23 05:32:49;;;;;;;1.07;0.97;;;2.80;97.30;;;;;;5014763;28;20187;-87
2023/12/23 05:35:15;;;;;;;2.30;1.83;;;2.80;97.30;;;;;;5013918;28;20201;-87
2023/12/23 05:37:40;;;;;;;1.10;1.00;;;2.80;97.30;;;;;;4997293;28;20188;-87
2023/12/23 05:40:06;;;;;;;0.90;0.80;;;2.80;97.30;;;;;;4997312;28;20165;-88
2023/12/23 05:42:32;;;;;;;1.00;0.90;;;2.80;97.30;;;;;;5013575;28;20260;-88
2023/12/23 05:44:57;;;;;;;0.90;0.80;;;2.80;97.30;;;;;;4997235;28;20471;-86
2023/12/23 05:47:23;;;;;;;1.00;0.90;;;2.80;97.30;;;;;;5013970;28;20204;-87
2023/12/23 05:49:48;;;;;;;1.13;1.03;;;2.80;97.30;;;;;;5004755;28;20181;-88
2023/12/23 05:52:14;;;;;;;2.13;1.97;;;2.80;97.30;;;;;;5011925;28;20669;-87
2023/12/23 05:54:39;;;;;;;0.90;0.80;;;2.80;97.30;;;;;;5013334;28;20205;-85
2023/12/23 05:57:05;;;;;;;1.00;0.90;;;2.90;97.30;;;;;;4997643;28;20261;-86
2023/12/23 05:59:32;;;;;;;0.97;0.87;;;3.00;97.30;;;;;;5013689;28;20196;-85
2023/12/23 06:02:04;;;;;;;1.10;1.00;;;3.00;97.30;;;;;;5013596;28;20614;-86
2023/12/23 06:04:29;;;;;;;0.90;0.80;;;3.10;97.30;;;;;;5013933;28;20559;-86
2023/12/23 06:06:55;;;;;;;0.80;0.70;;;3.20;97.30;;;;;;4997306;28;20440;-86
2023/12/23 06:09:20;;;;;;;0.90;0.80;;;3.30;97.30;;;;;;5014562;28;20173;-86
2023/12/23 06:11:46;;;;;;;1.00;0.90;;;3.30;97.30;;;;;;5013532;28;20545;-86
2023/12/23 06:14:11;;;;;;;1.30;1.20;;;3.30;97.30;;;;;;4995702;28;20209;-85
2023/12/23 06:16:40;;;;;;;1.00;0.90;;;3.30;97.30;;;;;;4996631;28;20980;-86
2023/12/23 06:19:06;;;;;;;1.00;0.90;;;3.30;97.30;;;;;;5013720;28;20282;-86
2023/12/23 06:21:32;;;;;;;1.10;1.00;;;3.30;97.30;;;;;;4997831;28;20424;-87
2023/12/23 06:23:58;;;;;;;2.03;1.90;;;3.20;97.30;;;;;;5013797;28;20428;-86
2023/12/23 06:26:24;;;;;;;1.03;0.93;;;3.20;97.30;;;;;;5013602;28;20165;-87
2023/12/23 06:28:50;;;;;;;1.00;0.90;;;3.10;97.30;;;;;;4997539;28;20412;-86
2023/12/23 06:31:15;;;;;;;1.83;1.73;;;3.10;97.30;;;;;;5013144;28;20430;-86
2023/12/23 06:33:41;;;;;;;0.90;0.80;;;3.10;97.30;;;;;;4995872;28;20453;-87
2023/12/23 06:36:08;;;;;;;1.20;1.10;;;3.00;97.30;;;;;;4996173;28;20205;-85
2023/12/23 06:38:34;;;;;;;1.00;0.90;;;3.00;97.30;;;;;;5013717;28;20176;-86
2023/12/23 06:41:00;;;;;;;0.90;0.80;;;3.00;97.30;;;;;;5012622;28;20420;-86
2023/12/23 06:43:25;;;;;;;1.30;1.20;;;2.90;97.30;;;;;;5012331;28;20423;-86
2023/12/23 06:45:51;;;;;;;1.00;0.90;;;2.80;97.30;;;;;;5012277;28;20420;-86
2023/12/23 06:48:16;;;;;;;1.00;0.90;;;2.80;97.30;;;;;;5004095;28;20196;-87
2023/12/23 06:50:44;;;;;;;1.10;1.00;;;2.70;97.30;;;;;;5012475;28;20657;-87
2023/12/23 06:53:10;;;;;;;1.00;0.90;;;2.70;97.30;;;;;;5012530;28;20184;-86
2023/12/23 06:55:35;;;;;;;1.00;0.90;;;2.60;97.30;;;;;;5012513;28;20456;-86
2023/12/23 06:58:01;;;;;;;1.00;0.90;;;2.60;97.30;;;;;;5012138;28;20678;-85
2023/12/23 07:00:26;;;;;;;1.00;0.90;;;2.50;97.30;;;;;;4995700;28;20546;-86
2023/12/23 07:02:52;;;;;;;0.90;0.80;;;2.50;97.30;;;;;;4997482;28;20183;-85
2023/12/23 07:05:18;;;;;;;1.13;1.03;;;2.50;97.30;;;;;;5013840;28;20782;-84
2023/12/23 07:07:44;;;;;;;2.60;1.20;;;2.50;97.30;;;;;;5003842;28;20176;-86
2023/12/23 07:10:10;;;;;;;3.57;1.53;;;2.50;97.30;;;;;;5019141;28;20181;-87
2023/12/23 07:12:36;;;;;;;0.93;0.83;;;2.50;97.30;;;;;;5012272;28;20788;-87
2023/12/23 07:15:03;;;;;;;1.10;1.00;;;2.50;97.30;;;;;;4994788;28;20621;-86
2023/12/23 07:17:29;;;;;;;1.23;1.13;;;2.50;97.30;;;;;;4995811;28;20180;-87
2023/12/23 07:19:54;;;;;;;1.10;1.00;;;2.40;97.30;;;;;;5011601;28;20416;-86
2023/12/23 07:22:20;;;;;;;1.00;0.90;;;2.40;97.30;;;;;;5012998;28;20647;-87
2023/12/23 07:24:46;;;;;;;1.00;0.90;;;2.40;97.30;;;;;;4995447;28;20197;-87
2023/12/23 07:27:11;;;;;;;1.00;0.90;;;2.40;97.30;;;;;;4995253;28;20191;-87
2023/12/23 07:29:40;;;;;;;1.00;0.90;;;2.40;97.30;;;;;;5012836;28;20227;-86
2023/12/23 07:32:06;;;;;;;1.63;1.20;;;2.40;97.30;;;;;;4998923;28;20177;-86
2023/12/23 07:34:32;;;;;;;1.10;1.00;;;2.40;97.30;;;;;;4999604;28;20439;-85
2023/12/23 07:36:58;;;;;;;1.00;0.90;;;2.40;97.30;;;;;;4999189;28;20948;-86
2023/12/23 07:39:23;;;;;;;1.00;0.90;;;2.40;97.30;;;;;;5015440;28;20183;-86
2023/12/23 07:41:49;;;;;;;1.73;1.40;;;2.40;97.30;;;;;;5000001;28;20647;-87
2023/12/23 07:44:14;;;;;;;0.90;0.80;;;2.50;97.30;;;;;;4998756;28;20197;-87
2023/12/23 07:46:40;;;;;;;2.40;1.30;;;2.50;97.30;;;;;;4998789;28;20671;-87
2023/12/23 07:49:05;;;;;;;1.00;0.90;;;2.50;97.30;;;;;;4999096;28;20185;-86
2023/12/23 07:51:31;;;;;;;1.30;1.20;;;2.50;97.30;;;;;;5014890;28;20241;-87
2023/12/23 07:53:56;;;;;;;1.03;0.93;;;2.50;97.30;;;;;;4998644;28;20201;-87
2023/12/23 07:56:25;;;;;;;1.43;1.17;;;2.50;97.30;;;;;;5014345;28;20196;-87
2023/12/23 07:58:51;;;;;;;0.97;0.87;;;2.50;97.30;;;;;;5015411;28;20264;-86
2023/12/23 08:01:17;;;;;;;1.10;1.00;;;2.50;97.30;;;;;;5015918;28;20408;-86
2023/12/23 08:03:43;;;;;;;1.40;1.30;;;2.50;97.30;;;;;;5007823;28;20810;-85
2023/12/23 08:06:08;;;;;;;1.10;1.00;;;2.50;97.30;;;;;;4998789;28;20239;-86
2023/12/23 08:08:34;;;;;;;1.20;1.10;;;2.50;97.30;;;;;;5016174;28;20769;-86
2023/12/23 08:10:59;;;;;;;1.03;1.00;;;2.50;97.30;;;;;;4998275;28;20264;-87
2023/12/23 08:13:27;;;;;;;0.90;0.80;;;2.60;97.30;;;;;;4995746;28;20301;-88
2023/12/23 08:15:52;;;;;;;0.90;0.80;;;2.60;97.30;;;;;;4994219;28;20216;-86
2023/12/23 08:18:18;;;;;;;5.30;1.40;;;2.60;97.30;;;;;;5011039;28;20427;-86
2023/12/23 08:20:44;;;;;;;1.00;0.90;;;2.60;97.30;;;;;;5012992;28;20245;-87
2023/12/23 08:23:09;;;;;;;1.20;1.10;;;2.70;97.30;;;;;;4995095;28;20189;-87
2023/12/23 08:25:35;;;;;;;1.83;1.73;;;2.70;97.30;;;;;;4999246;28;20451;-86
2023/12/23 08:28:01;;;;;;;0.97;0.87;;;2.70;97.30;;;;;;4995314;28;20231;-86
2023/12/23 08:30:26;;;;;;;1.40;1.30;;;2.70;97.30;;;;;;4997888;28;20224;-87
2023/12/23 08:32:51;;;;;;;1.03;0.93;;;2.80;97.30;;;;;;4996568;28;20200;-87
2023/12/23 08:35:17;;;;;;;1.10;1.00;;;2.80;97.30;;;;;;4993143;28;20209;-87
2023/12/23 08:37:43;;;;;;;2.40;1.73;;;2.80;97.30;;;;;;4994534;28;20184;-85
2023/12/23 08:40:11;;;;;;;1.10;1.00;;;2.80;97.30;;;;;;4993630;28;20189;-87
2023/12/23 08:42:37;;;;;;;1.00;0.90;;;2.90;97.30;;;;;;5010661;28;20179;-87
2023/12/23 08:45:03;;;;;;;1.00;0.90;;;2.90;97.30;;;;;;5008697;28;20430;-88
2023/12/23 08:47:28;;;;;;;1.00;0.90;;;3.00;97.30;;;;;;4993103;28;20244;-87
2023/12/23 08:49:56;;;;;;;1.00;0.90;;;3.00;97.30;;;;;;5010485;28;20416;-88
2023/12/23 08:52:21;;;;;;;1.00;0.90;;;3.00;97.30;;;;;;4994027;28;20201;-87
2023/12/23 08:54:47;;;;;;;1.10;1.00;;;3.10;97.30;;;;;;4991266;28;20494;-86
2023/12/23 08:57:12;;;;;;;0.90;0.80;;;3.10;97.30;;;;;;5010226;28;20173;-87
2023/12/23 08:59:38;;;;;;;1.00;0.90;;;3.10;97.30;;;;;;4992808;28;20208;-87
2023/12/23 09:02:04;;;;;;;1.00;0.90;;;3.20;97.30;;;;;;4995829;28;20177;-86
2023/12/23 09:04:30;;;;;;;1.10;1.00;;;3.20;97.30;;;;;;5011802;28;20381;-88
2023/12/23 09:06:57;;;;;;;0.90;0.80;;;3.20;97.30;;;;;;4995079;28;20937;-87
2023/12/23 09:09:24;;;;;;;1.00;0.90;;;3.20;97.30;;;;;;4995713;28;20204;-88
2023/12/23 09:11:49;;;;;;;1.00;0.90;;;3.30;97.30;;;;;;4995163;28;20419;-89
2023/12/23 09:14:15;;;;;;;0.90;0.80;;;3.30;97.30;;;;;;5011482;28;20934;-88
2023/12/23 09:16:41;;;;;;;0.90;0.80;;;3.30;97.30;;;;;;5010992;28;20475;-88
2023/12/23 09:19:06;;;;;;;1.73;1.10;;;3.30;97.30;;;;;;5010453;28;20654;-89
2023/12/23 09:21:32;;;;;;;0.90;0.80;;;3.30;97.30;;;;;;4994508;28;20662;-90
2023/12/23 09:23:58;;;;;;;1.00;0.90;;;3.30;97.30;;;;;;4994501;28;20729;-88
2023/12/23 09:26:26;;;;;;;1.07;0.97;;;3.30;97.30;;;;;;5010714;28;20220;-88
2023/12/23 09:28:52;;;;;;;1.77;1.67;;;3.30;97.30;;;;;;5009548;28;20177;-88
2023/12/23 09:31:18;;;;;;;0.90;0.80;;;3.30;97.30;;;;;;5012285;28;20416;-87
2023/12/23 09:33:44;;;;;;;0.90;0.80;;;3.30;97.30;;;;;;4995183;28;20442;-88
2023/12/23 09:36:09;;;;;;;0.90;0.80;;;3.30;97.30;;;;;;5010804;28;20296;-89
2023/12/23 09:38:35;;;;;;;0.90;0.80;;;3.30;97.30;;;;;;4994417;28;20896;-89
2023/12/23 09:41:01;;;;;;;1.10;1.00;;;3.30;97.30;;;;;;4994283;28;20180;-88
2023/12/23 09:43:26;;;;;;;0.90;0.80;;;3.30;97.30;;;;;;5011275;28;20636;-87
2023/12/23 09:45:52;;;;;;;1.20;1.10;;;3.30;97.30;;;;;;5009649;28;20185;-89
2023/12/23 09:48:18;;;;;;;0.90;0.80;;;3.40;97.30;;;;;;4993460;28;20185;-88
2023/12/23 09:50:45;;;;;;;0.90;0.80;;;3.30;97.30;;;;;;4993049;28;20530;-89
2023/12/23 09:53:13;;;;;;;0.90;0.80;;;3.30;97.30;;;;;;5009546;28;20511;-90
2023/12/23 09:55:40;;;;;;;1.10;1.00;;;3.30;97.30;;;;;;5011719;28;20451;-87
2023/12/23 09:58:05;;;;;;;0.90;0.80;;;3.40;97.30;;;;;;4996247;28;20424;-88
2023/12/23 10:00:31;;;;;;;1.13;1.00;;;3.30;97.30;;;;;;4995330;28;20820;-88
2023/12/23 10:02:57;;;;;;;0.90;0.80;;;3.30;97.30;;;;;;5011488;28;20655;-88
2023/12/23 10:05:26;;;;;;;0.90;0.80;;;3.30;97.30;;;;;;4993922;28;20472;-88
2023/12/23 10:07:57;;;;;;;0.90;0.80;;;3.30;97.30;;;;;;5011659;28;20189;-88
2023/12/23 10:10:23;;;;;;;0.90;0.80;;;3.30;97.30;;;;;;4994348;28;20486;-88
2023/12/23 10:12:48;;;;;;;0.90;0.80;;;3.30;97.30;;;;;;4993941;28;20478;-88
2023/12/23 10:15:14;;;;;;;1.30;1.20;;;3.30;97.30;;;;;;4993421;28;20559;-87
2023/12/23 10:17:39;;;;;;;0.90;0.80;;;3.30;97.30;;;;;;4993760;28;20182;-87
2023/12/23 10:20:05;;;;;;;1.10;1.00;;;3.30;97.30;;;;;;4993603;28;20177;-86
2023/12/23 10:22:31;;;;;;;0.90;0.80;;;3.30;97.30;;;;;;5010060;28;20185;-87
2023/12/23 10:24:57;;;;;;;0.90;0.80;;;3.30;97.30;;;;;;5011407;28;20822;-89
2023/12/23 10:27:25;;;;;;;1.00;0.90;;;3.30;97.30;;;;;;4993707;28;20373;-88
2023/12/23 10:29:55;;;;;;;0.90;0.80;;;3.30;97.30;;;;;;5011222;28;20510;-88
2023/12/23 10:32:24;;;;;;;0.90;0.80;;;3.30;97.30;;;;;;4993856;28;20420;-89
2023/12/23 10:34:54;;;;;;;0.90;0.80;;;3.30;97.30;;;;;;4993921;28;20506;-88
2023/12/23 10:37:22;;;;;;;1.00;0.90;;;3.30;97.30;;;;;;4993465;28;20791;-89
2023/12/23 10:40:03;;;;;;;0.90;0.80;;;3.30;97.30;;;;;;4993329;28;20854;-88
2023/12/23 10:42:30;;;;;;;1.70;1.60;;;3.30;97.30;;;;;;4993466;28;20495;-89
2023/12/23 10:44:57;;;;;;;1.00;0.90;;;3.20;97.30;;;;;;5009809;28;20440;-89
2023/12/23 10:47:23;;;;;;;0.90;0.80;;;3.20;97.30;;;;;;5010848;28;20428;-89
2023/12/23 10:49:49;;;;;;;0.90;0.80;;;3.20;97.30;;;;;;4993266;28;20929;-87
2023/12/23 10:52:16;;;;;;;1.00;0.90;;;3.30;97.30;;;;;;4993427;28;20424;-88
2023/12/23 10:54:42;;;;;;;1.00;0.90;;;3.30;97.30;;;;;;5011030;28;20440;-88
2023/12/23 10:57:09;;;;;;;1.00;0.90;;;3.20;97.30;;;;;;4993088;28;20416;-89
2023/12/23 10:59:35;;;;;;;0.90;0.80;;;3.20;97.30;;;;;;4992948;28;20420;-87
2023/12/23 11:02:07;;;;;;;0.90;0.80;;;3.20;97.30;;;;;;5009325;28;20483;-87
2023/12/23 11:04:33;;;;;;;0.80;0.70;;;3.20;97.30;;;;;;4992787;28;20236;-89
2023/12/23 11:07:02;;;;;;;0.97;0.87;;;3.20;97.30;;;;;;5018114;28;20439;-88
2023/12/23 11:09:29;;;;;;;0.90;0.80;;;3.20;97.30;;;;;;5017314;28;20843;-89
2023/12/23 11:11:54;;;;;;;1.50;1.40;;;3.20;97.30;;;;;;5009777;28;20455;-89
2023/12/23 11:14:20;;;;;;;0.90;0.80;;;3.10;97.30;;;;;;4992214;28;20480;-90
2023/12/23 11:16:49;;;;;;;0.90;0.80;;;3.20;97.30;;;;;;4992860;28;20300;-88
2023/12/23 11:19:15;;;;;;;0.90;0.80;;;3.10;97.30;;;;;;4997695;28;20189;-87
2023/12/23 11:21:40;;;;;;;0.90;0.80;;;3.10;97.30;;;;;;5009526;28;20574;-88
2023/12/23 11:24:33;;;;;;;1.00;0.90;;;3.10;97.30;;;;;;5009110;28;20197;-89
2023/12/23 11:26:59;;;;;;;0.90;0.80;;;3.00;97.30;;;;;;4983375;28;20268;-88
2023/12/23 11:29:25;;;;;;;0.90;0.80;;;3.00;97.30;;;;;;4990650;28;20441;-86
2023/12/23 11:31:50;;;;;;;0.90;0.80;;;3.00;97.30;;;;;;5007226;28;20182;-87
2023/12/23 11:34:19;;;;;;;0.90;0.80;;;2.90;97.30;;;;;;5006519;28;20201;-86
2023/12/23 11:36:48;;;;;;;0.87;0.77;;;2.90;97.30;;;;;;5005456;28;20209;-90
2023/12/23 11:39:17;;;;;;;0.90;0.80;;;2.80;97.30;;;;;;4989929;28;20420;-88
2023/12/23 11:41:45;;;;;;;0.93;0.83;;;2.80;97.30;;;;;;4990474;28;20418;-89
2023/12/23 11:44:11;;;;;;;1.00;0.90;;;2.80;97.30;;;;;;4988470;28;20834;-88
2023/12/23 11:46:39;;;;;;;1.00;0.90;;;2.80;97.30;;;;;;4988813;28;20782;-88
2023/12/23 11:49:08;;;;;;;1.20;1.10;;;2.80;97.30;;;;;;4992148;28;20428;-88
2023/12/23 11:51:34;;;;;;;1.17;1.07;;;2.80;97.30;;;;;;4989260;28;20420;-87
2023/12/23 11:54:00;;;;;;;0.90;0.80;;;2.70;97.30;;;;;;5005935;28;20804;-87
2023/12/23 11:56:29;;;;;;;0.80;0.70;;;2.70;97.30;;;;;;4988457;28;20464;-85
2023/12/23 11:58:55;;;;;;;0.80;0.70;;;2.70;97.30;;;;;;5008269;28;20201;-86
2023/12/23 12:01:20;;;;;;;0.90;0.80;;;2.70;97.30;;;;;;4990376;28;20462;-86
2023/12/23 12:03:49;;;;;;;0.90;0.80;;;2.60;97.30;;;;;;5004637;28;20456;-86
2023/12/23 12:06:15;;;;;;;1.00;0.90;;;2.60;97.30;;;;;;4988934;28;20280;-86
2023/12/23 12:08:41;;;;;;;1.00;0.90;;;2.60;97.30;;;;;;4989234;28;20420;-87
2023/12/23 12:11:07;;;;;;;0.93;0.83;;;2.60;97.30;;;;;;4986535;28;20427;-86
2023/12/23 12:13:36;;;;;;;1.10;1.00;;;2.60;97.30;;;;;;4988621;28;20228;-86
2023/12/23 12:16:02;;;;;;;0.90;0.80;;;2.60;97.30;;;;;;4991066;28;20472;-86
2023/12/23 12:18:27;;;;;;;1.00;0.90;;;2.70;97.30;;;;;;4992039;28;20420;-85
2023/12/23 12:20:57;;;;;;;1.00;0.90;;;2.70;97.30;;;;;;4995739;28;20184;-87
2023/12/23 12:23:23;;;;;;;1.00;0.90;;;2.70;97.30;;;;;;4995542;28;20216;-89
2023/12/23 12:25:49;;;;;;;1.30;1.20;;;2.80;97.30;;;;;;5011118;28;20846;-87
2023/12/23 12:28:15;;;;;;;1.00;0.90;;;2.80;97.30;;;;;;5011310;28;20184;-88
2023/12/23 12:30:43;;;;;;;1.03;0.93;;;2.80;97.30;;;;;;4994537;28;20424;-89
2023/12/23 12:33:09;;;;;;;0.90;0.80;;;2.80;97.30;;;;;;5011705;28;20439;-88
2023/12/23 12:35:35;;;;;;;0.93;0.83;;;2.80;97.30;;;;;;5012406;28;20467;-87
2023/12/23 12:38:01;;;;;;;1.00;0.90;;;2.80;97.30;;;;;;4994030;28;20954;-89
2023/12/23 12:40:26;;;;;;;0.90;0.80;;;2.80;97.30;;;;;;5011824;28;20425;-88
2023/12/23 12:42:54;;;;;;;1.00;0.90;;;2.80;97.30;;;;;;4997885;28;20181;-90
2023/12/23 12:45:23;;;;;;;0.83;0.73;;;2.80;97.30;;;;;;5014750;28;20211;-88
2023/12/23 12:47:50;;;;;;;0.90;0.80;;;2.80;97.30;;;;;;5023687;28;20424;-87
2023/12/23 12:50:18;;;;;;;0.90;0.80;;;2.80;97.30;;;;;;5031249;28;20431;-88
2023/12/23 12:52:45;;;;;;;0.90;0.80;;;2.80;97.30;;;;;;5022666;28;20486;-88